createdAt,value
2018-12-01T00:01:41.904Z,10.70
2018-12-01T00:03:45.954Z,10.70
2018-12-01T00:05:52.069Z,10.70
2018-12-01T00:07:56.831Z,10.70
2018-12-01T00:10:00.958Z,10.70
2018-12-01T00:12:05.854Z,10.70
2018-12-01T00:14:09.998Z,10.70
2018-12-01T00:16:14.016Z,10.70
2018-12-01T00:20:23.482Z,10.70
2018-12-01T00:22:27.510Z,10.70
2018-12-01T00:24:31.556Z,10.70
2018-12-01T00:26:35.719Z,10.70
2018-12-01T00:28:39.724Z,10.70
2018-12-01T00:30:43.759Z,10.70
2018-12-01T00:32:49.867Z,10.80
2018-12-01T00:34:53.973Z,10.80
2018-12-01T00:36:58.105Z,10.80
2018-12-01T00:39:02.126Z,10.80
2018-12-01T00:41:06.301Z,10.80
2018-12-01T00:43:10.362Z,10.80
2018-12-01T00:45:16.939Z,10.80
2018-12-01T00:47:20.970Z,10.80
2018-12-01T00:49:25.009Z,10.80
2018-12-01T00:51:29.105Z,10.80
2018-12-01T00:53:33.159Z,10.80
2018-12-01T00:55:37.255Z,10.80
2018-12-01T00:57:41.272Z,10.80
2018-12-01T00:59:45.351Z,10.80
2018-12-01T01:01:49.426Z,10.80
2018-12-01T01:03:53.537Z,10.70
2018-12-01T01:05:57.678Z,10.80
2018-12-01T01:08:01.977Z,10.70
2018-12-01T01:10:09.615Z,10.70
2018-12-01T01:12:13.848Z,10.70
2018-12-01T01:14:17.880Z,10.70
2018-12-01T01:16:21.996Z,10.80
2018-12-01T01:18:26.045Z,10.70
2018-12-01T01:20:30.086Z,10.70
2018-12-01T01:22:34.113Z,10.70
2018-12-01T01:24:39.085Z,10.70
2018-12-01T01:26:43.214Z,10.70
2018-12-01T01:28:47.270Z,10.70
2018-12-01T01:30:51.357Z,10.70
2018-12-01T01:33:12.557Z,10.70
2018-12-01T01:35:16.614Z,10.70
2018-12-01T01:37:20.678Z,10.70
2018-12-01T01:39:24.859Z,10.60
2018-12-01T01:41:28.955Z,10.60
2018-12-01T01:43:32.961Z,10.60
2018-12-01T01:45:37.069Z,10.60
2018-12-01T01:47:41.372Z,10.60
2018-12-01T01:49:45.402Z,10.60
2018-12-01T01:51:49.562Z,10.60
2018-12-01T01:53:53.611Z,10.60
2018-12-01T01:55:57.660Z,10.60
2018-12-01T01:58:01.826Z,10.60
2018-12-01T02:00:14.036Z,10.50
2018-12-01T02:02:20.134Z,10.50
2018-12-01T02:04:24.770Z,10.50
2018-12-01T02:06:31.264Z,10.50
2018-12-01T02:08:35.298Z,10.50
2018-12-01T02:10:39.352Z,10.50
2018-12-01T02:12:43.370Z,10.50
2018-12-01T02:14:47.561Z,10.50
2018-12-01T02:16:51.629Z,10.40
2018-12-01T02:18:55.770Z,10.40
2018-12-01T02:20:59.832Z,10.40
2018-12-01T02:23:03.894Z,10.40
2018-12-01T02:25:12.245Z,10.40
2018-12-01T02:27:16.292Z,10.40
2018-12-01T02:29:20.726Z,10.40
2018-12-01T02:31:24.864Z,10.30
2018-12-01T02:33:28.911Z,10.30
2018-12-01T02:35:33.074Z,10.30
2018-12-01T02:37:37.237Z,10.30
2018-12-01T02:39:41.291Z,10.30
2018-12-01T02:41:45.318Z,10.30
2018-12-01T02:45:07.581Z,10.20
2018-12-01T02:47:11.638Z,10.20
2018-12-01T02:49:15.790Z,10.20
2018-12-01T02:51:19.886Z,10.10
2018-12-01T02:53:24.106Z,10.10
2018-12-01T02:55:28.201Z,10.10
2018-12-01T02:57:32.542Z,10.10
2018-12-01T02:59:36.582Z,10.10
2018-12-01T03:01:41.221Z,10.10
2018-12-01T03:03:45.264Z,10.10
2018-12-01T03:05:49.303Z,10.10
2018-12-01T03:07:53.800Z,10.10
2018-12-01T03:09:57.863Z,10.10
2018-12-01T03:12:01.938Z,10.00
2018-12-01T03:14:06.467Z,10.10
2018-12-01T03:16:10.547Z,10.00
2018-12-01T03:18:15.133Z,10.00
2018-12-01T03:20:19.462Z,10.00
2018-12-01T03:22:23.573Z,10.00
2018-12-01T03:24:27.585Z,10.10
2018-12-01T03:26:31.628Z,10.10
2018-12-01T03:28:36.072Z,10.10
2018-12-01T03:30:40.130Z,10.10
2018-12-01T03:32:44.184Z,10.10
2018-12-01T03:34:48.229Z,10.10
2018-12-01T03:36:52.281Z,10.00
2018-12-01T03:38:56.314Z,10.10
2018-12-01T03:41:00.366Z,10.10
2018-12-01T03:43:04.441Z,10.10
2018-12-01T03:45:11.101Z,10.10
2018-12-01T03:47:15.269Z,10.10
2018-12-01T03:49:19.316Z,10.10
2018-12-01T03:51:23.323Z,10.10
2018-12-01T03:53:27.442Z,10.10
2018-12-01T03:55:33.254Z,10.10
2018-12-01T03:57:37.319Z,10.10
2018-12-01T03:59:41.452Z,10.10
2018-12-01T04:01:45.505Z,10.10
2018-12-01T04:03:49.574Z,10.10
2018-12-01T04:05:53.658Z,10.10
2018-12-01T04:07:57.758Z,10.10
2018-12-01T04:10:01.846Z,10.10
2018-12-01T04:12:06.166Z,10.10
2018-12-01T04:14:10.297Z,10.10
2018-12-01T04:16:15.218Z,10.20
2018-12-01T04:18:19.269Z,10.10
2018-12-01T04:20:23.380Z,10.10
2018-12-01T04:22:27.696Z,10.10
2018-12-01T04:24:31.811Z,10.10
2018-12-01T04:26:35.891Z,10.20
2018-12-01T04:28:39.914Z,10.10
2018-12-01T04:30:43.941Z,10.10
2018-12-01T04:32:48.068Z,10.10
2018-12-01T04:34:52.155Z,10.20
2018-12-01T04:36:56.321Z,10.20
2018-12-01T04:39:00.450Z,10.20
2018-12-01T04:41:04.528Z,10.20
2018-12-01T04:43:08.594Z,10.20
2018-12-01T04:45:12.672Z,10.20
2018-12-01T04:47:17.433Z,10.20
2018-12-01T04:49:21.510Z,10.20
2018-12-01T04:51:25.537Z,10.20
2018-12-01T04:53:29.632Z,10.20
2018-12-01T04:55:33.746Z,10.20
2018-12-01T04:57:37.794Z,10.20
2018-12-01T04:59:41.884Z,10.20
2018-12-01T05:01:45.974Z,10.20
2018-12-01T05:03:50.177Z,10.20
2018-12-01T05:05:54.209Z,10.20
2018-12-01T05:07:58.423Z,10.20
2018-12-01T05:10:02.561Z,10.20
2018-12-01T05:12:07.122Z,10.20
2018-12-01T05:14:11.229Z,10.20
2018-12-01T05:16:15.390Z,10.30
2018-12-01T05:18:19.548Z,10.30
2018-12-01T05:20:24.858Z,10.20
2018-12-01T05:22:28.964Z,10.30
2018-12-01T05:24:33.002Z,10.30
2018-12-01T05:26:37.059Z,10.30
2018-12-01T05:28:41.210Z,10.30
2018-12-01T05:30:45.267Z,10.40
2018-12-01T05:32:49.553Z,10.40
2018-12-01T05:34:53.649Z,10.40
2018-12-01T05:36:57.745Z,10.40
2018-12-01T05:39:01.780Z,10.40
2018-12-01T05:41:06.400Z,10.40
2018-12-01T05:43:10.485Z,10.40
2018-12-01T05:45:20.869Z,10.50
2018-12-01T05:47:24.974Z,10.50
2018-12-01T05:49:29.133Z,10.50
2018-12-01T05:51:33.166Z,10.50
2018-12-01T05:53:37.244Z,10.50
2018-12-01T05:55:41.291Z,10.50
2018-12-01T05:57:45.328Z,10.60
2018-12-01T05:59:49.429Z,10.50
2018-12-01T06:01:53.517Z,10.60
2018-12-01T06:03:57.590Z,10.60
2018-12-01T06:06:01.630Z,10.60
2018-12-01T06:08:06.066Z,10.60
2018-12-01T06:10:20.306Z,10.70
2018-12-01T06:12:24.337Z,10.70
2018-12-01T06:14:28.456Z,10.70
2018-12-01T06:16:32.498Z,10.70
2018-12-01T06:18:36.609Z,10.70
2018-12-01T06:20:40.709Z,10.70
2018-12-01T06:22:44.761Z,10.70
2018-12-01T06:24:48.936Z,10.70
2018-12-01T06:26:53.017Z,10.80
2018-12-01T06:28:57.221Z,10.80
2018-12-01T06:31:01.288Z,10.80
2018-12-01T06:33:05.713Z,10.80
2018-12-01T06:35:09.952Z,10.80
2018-12-01T06:37:14.189Z,10.80
2018-12-01T06:39:18.339Z,10.80
2018-12-01T06:41:22.436Z,10.80
2018-12-01T06:43:26.529Z,10.80
2018-12-01T06:45:30.705Z,10.80
2018-12-01T06:47:34.812Z,10.80
2018-12-01T06:49:38.914Z,10.80
2018-12-01T06:51:42.954Z,10.90
2018-12-01T06:53:47.005Z,10.90
2018-12-01T06:55:51.048Z,10.90
2018-12-01T06:57:55.175Z,10.90
2018-12-01T06:59:59.243Z,10.90
2018-12-01T07:02:03.301Z,10.90
2018-12-01T07:04:07.318Z,10.90
2018-12-01T07:06:11.431Z,10.90
2018-12-01T07:08:16.384Z,10.90
2018-12-01T07:10:21.726Z,10.90
2018-12-01T07:12:25.793Z,10.90
2018-12-01T07:14:29.919Z,10.90
2018-12-01T07:16:34.080Z,10.90
2018-12-01T07:19:20.457Z,10.90
2018-12-01T07:21:24.510Z,10.90
2018-12-01T07:23:28.678Z,10.90
2018-12-01T07:25:32.727Z,10.90
2018-12-01T07:27:36.773Z,10.90
2018-12-01T07:29:40.882Z,10.80
2018-12-01T07:31:44.993Z,10.90
2018-12-01T07:33:49.065Z,10.90
2018-12-01T07:35:53.182Z,10.90
2018-12-01T07:37:57.519Z,10.90
2018-12-01T07:40:01.548Z,10.90
2018-12-01T07:42:05.830Z,10.90
2018-12-01T07:44:09.862Z,10.90
2018-12-01T07:46:14.046Z,10.90
2018-12-01T07:48:18.048Z,10.90
2018-12-01T07:50:22.144Z,10.90
2018-12-01T07:52:26.240Z,10.90
2018-12-01T07:54:30.285Z,11.00
2018-12-01T07:56:34.402Z,11.00
2018-12-01T07:58:38.426Z,11.00
2018-12-01T08:00:42.489Z,11.00
2018-12-01T08:02:49.241Z,11.00
2018-12-01T08:04:53.409Z,11.00
2018-12-01T08:06:57.435Z,11.00
2018-12-01T08:09:01.526Z,11.00
2018-12-01T08:11:05.563Z,11.00
2018-12-01T08:13:09.629Z,11.00
2018-12-01T08:15:16.681Z,11.10
2018-12-01T08:17:20.805Z,11.10
2018-12-01T08:19:24.857Z,11.10
2018-12-01T08:21:29.006Z,11.10
2018-12-01T08:23:33.092Z,11.10
2018-12-01T08:25:37.190Z,11.10
2018-12-01T08:27:41.345Z,11.10
2018-12-01T08:29:45.542Z,11.10
2018-12-01T08:31:49.650Z,11.10
2018-12-01T08:33:53.711Z,11.10
2018-12-01T08:35:57.900Z,11.10
2018-12-01T08:38:01.883Z,11.10
2018-12-01T08:40:09.513Z,11.10
2018-12-01T08:42:13.512Z,11.20
2018-12-01T08:44:17.669Z,11.20
2018-12-01T08:46:21.713Z,11.20
2018-12-01T08:48:25.935Z,11.20
2018-12-01T08:50:30.077Z,11.20
2018-12-01T08:52:34.157Z,11.30
2018-12-01T08:54:38.169Z,11.30
2018-12-01T08:56:42.433Z,11.30
2018-12-01T08:58:46.535Z,11.30
2018-12-01T09:00:50.542Z,11.30
2018-12-01T09:02:57.857Z,11.30
2018-12-01T09:05:01.962Z,11.30
2018-12-01T09:07:06.025Z,11.30
2018-12-01T09:09:10.029Z,11.30
2018-12-01T09:11:14.161Z,11.40
2018-12-01T09:13:19.003Z,11.30
2018-12-01T09:15:23.082Z,11.40
2018-12-01T09:17:27.169Z,11.40
2018-12-01T09:19:31.190Z,11.40
2018-12-01T09:21:35.208Z,11.40
2018-12-01T09:23:39.222Z,11.40
2018-12-01T09:25:43.256Z,11.40
2018-12-01T09:27:47.598Z,11.40
2018-12-01T09:29:51.645Z,11.40
2018-12-01T09:31:55.691Z,11.40
2018-12-01T09:33:59.721Z,11.40
2018-12-01T09:36:03.733Z,11.50
2018-12-01T09:38:07.769Z,11.50
2018-12-01T09:40:14.476Z,11.50
2018-12-01T09:42:18.506Z,11.50
2018-12-01T09:44:22.502Z,11.50
2018-12-01T09:46:26.563Z,11.50
2018-12-01T09:48:30.573Z,11.50
2018-12-01T09:50:34.734Z,11.60
2018-12-01T09:52:38.728Z,11.60
2018-12-01T09:54:43.004Z,11.60
2018-12-01T09:56:47.002Z,11.60
2018-12-01T09:58:51.045Z,11.60
2018-12-01T10:00:55.061Z,11.60
2018-12-01T10:03:00.671Z,11.70
2018-12-01T10:05:05.541Z,11.70
2018-12-01T10:07:10.352Z,11.70
2018-12-01T10:09:14.588Z,11.70
2018-12-01T10:11:19.377Z,11.80
2018-12-01T10:13:23.741Z,11.80
2018-12-01T10:15:33.016Z,11.80
2018-12-01T10:17:37.058Z,11.90
2018-12-01T10:19:41.174Z,12.00
2018-12-01T10:21:45.313Z,12.00
2018-12-01T10:23:49.335Z,12.00
2018-12-01T10:25:53.406Z,12.10
2018-12-01T10:27:57.456Z,12.10
2018-12-01T10:30:01.519Z,12.10
2018-12-01T10:32:05.681Z,12.10
2018-12-01T10:34:09.786Z,12.20
2018-12-01T10:36:13.883Z,12.20
2018-12-01T10:38:18.372Z,12.20
2018-12-01T10:40:22.412Z,12.30
2018-12-01T10:42:26.462Z,12.30
2018-12-01T10:44:30.514Z,12.40
2018-12-01T10:46:34.589Z,12.40
2018-12-01T10:48:38.697Z,12.40
2018-12-01T10:50:42.768Z,12.40
2018-12-01T10:52:47.731Z,12.50
2018-12-01T10:54:51.877Z,12.50
2018-12-01T10:56:56.021Z,12.50
2018-12-01T10:59:00.062Z,12.60
2018-12-01T11:01:09.372Z,12.60
2018-12-01T11:03:18.898Z,12.60
2018-12-01T11:05:22.980Z,12.60
2018-12-01T11:07:27.072Z,12.60
2018-12-01T11:09:31.158Z,12.60
2018-12-01T11:11:35.224Z,12.60
2018-12-01T11:13:39.240Z,12.60
2018-12-01T11:15:43.345Z,12.60
2018-12-01T11:17:47.373Z,12.60
2018-12-01T11:19:51.474Z,12.60
2018-12-01T11:21:55.486Z,12.60
2018-12-01T11:23:59.561Z,12.60
2018-12-01T11:26:03.771Z,12.60
2018-12-01T11:28:07.873Z,12.60
2018-12-01T11:30:17.449Z,12.60
2018-12-01T11:32:21.503Z,12.70
2018-12-01T11:34:25.505Z,12.70
2018-12-01T11:36:29.546Z,12.70
2018-12-01T11:38:33.639Z,12.70
2018-12-01T11:40:37.727Z,12.70
2018-12-01T11:42:41.773Z,12.70
2018-12-01T11:44:45.790Z,12.70
2018-12-01T11:46:49.865Z,12.70
2018-12-01T11:48:53.894Z,12.70
2018-12-01T11:50:57.949Z,12.70
2018-12-01T11:53:01.992Z,12.70
2018-12-01T11:55:09.980Z,12.70
2018-12-01T11:57:14.081Z,12.70
2018-12-01T11:59:18.177Z,12.70
2018-12-01T12:01:22.282Z,12.70
2018-12-01T12:03:26.363Z,12.70
2018-12-01T12:05:30.395Z,12.70
2018-12-01T12:07:51.714Z,12.70
2018-12-01T12:09:55.939Z,12.70
2018-12-01T12:11:59.982Z,12.80
2018-12-01T12:14:04.026Z,12.70
2018-12-01T12:16:08.227Z,12.80
2018-12-01T12:18:12.501Z,12.80
2018-12-01T12:20:16.598Z,12.80
2018-12-01T12:22:20.607Z,12.80
2018-12-01T12:24:24.695Z,12.80
2018-12-01T12:26:28.803Z,12.80
2018-12-01T12:28:32.814Z,12.80
2018-12-01T12:30:36.910Z,12.90
2018-12-01T12:32:41.005Z,12.90
2018-12-01T12:34:45.035Z,12.90
2018-12-01T12:36:49.129Z,12.90
2018-12-01T12:38:53.357Z,13.00
2018-12-01T12:40:57.514Z,13.00
2018-12-01T12:43:01.953Z,13.00
2018-12-01T12:45:08.870Z,13.00
2018-12-01T12:47:12.898Z,13.00
2018-12-01T12:49:16.963Z,13.10
2018-12-01T12:51:21.046Z,13.10
2018-12-01T12:53:25.057Z,13.10
2018-12-01T12:55:29.102Z,13.10
2018-12-01T12:57:33.122Z,13.20
2018-12-01T12:59:37.189Z,13.20
2018-12-01T13:01:41.320Z,13.20
2018-12-01T13:03:45.347Z,13.20
2018-12-01T13:05:49.509Z,13.20
2018-12-01T13:07:53.911Z,13.30
2018-12-01T13:09:57.909Z,13.30
2018-12-01T13:12:01.991Z,13.30
2018-12-01T13:14:06.833Z,13.30
2018-12-01T13:16:12.074Z,13.40
2018-12-01T13:18:16.298Z,13.40
2018-12-01T13:20:22.584Z,13.40
2018-12-01T13:22:26.822Z,13.40
2018-12-01T13:24:30.833Z,13.40
2018-12-01T13:26:34.893Z,13.40
2018-12-01T13:28:38.970Z,13.40
2018-12-01T13:30:46.384Z,13.40
2018-12-01T13:32:50.450Z,13.40
2018-12-01T13:34:54.491Z,13.40
2018-12-01T13:36:58.506Z,13.40
2018-12-01T13:39:02.551Z,13.40
2018-12-01T13:41:06.787Z,13.40
2018-12-01T13:43:10.890Z,13.40
2018-12-01T13:45:17.195Z,13.40
2018-12-01T13:47:21.216Z,13.40
2018-12-01T13:49:25.269Z,13.40
2018-12-01T13:51:29.317Z,13.40
2018-12-01T13:53:33.445Z,13.40
2018-12-01T13:55:37.588Z,13.40
2018-12-01T13:57:41.638Z,13.40
2018-12-01T13:59:45.711Z,13.40
2018-12-01T14:01:49.878Z,13.40
2018-12-01T14:03:53.941Z,13.40
2018-12-01T14:05:58.139Z,13.40
2018-12-01T14:08:02.341Z,13.40
2018-12-01T14:10:22.486Z,13.40
2018-12-01T14:12:26.528Z,13.40
2018-12-01T14:14:30.668Z,13.40
2018-12-01T14:16:34.727Z,13.40
2018-12-01T14:18:38.734Z,13.40
2018-12-01T14:20:42.891Z,13.40
2018-12-01T14:22:48.343Z,13.40
2018-12-01T14:24:52.433Z,13.40
2018-12-01T14:26:56.560Z,13.40
2018-12-01T14:29:00.622Z,13.40
2018-12-01T14:31:06.750Z,13.30
2018-12-01T14:33:12.359Z,13.40
2018-12-01T14:35:21.285Z,13.30
2018-12-01T14:37:25.298Z,13.30
2018-12-01T14:39:29.448Z,13.30
2018-12-01T14:41:33.464Z,13.30
2018-12-01T14:43:37.547Z,13.30
2018-12-01T14:45:42.750Z,13.30
2018-12-01T14:47:46.922Z,13.30
2018-12-01T14:49:50.985Z,13.30
2018-12-01T14:51:55.068Z,13.30
2018-12-01T14:53:59.065Z,13.30
2018-12-01T14:56:03.167Z,13.20
2018-12-01T14:58:08.157Z,13.20
2018-12-01T15:00:21.007Z,13.20
2018-12-01T15:02:25.001Z,13.20
2018-12-01T15:04:29.044Z,13.20
2018-12-01T15:06:33.036Z,13.20
2018-12-01T15:08:37.217Z,13.20
2018-12-01T15:10:41.230Z,13.20
2018-12-01T15:12:45.257Z,13.20
2018-12-01T15:14:49.265Z,13.20
2018-12-01T15:16:53.405Z,13.10
2018-12-01T15:18:57.425Z,13.10
2018-12-01T15:21:01.486Z,13.20
2018-12-01T15:23:06.682Z,13.10
2018-12-01T15:25:13.650Z,13.10
2018-12-01T15:27:17.667Z,13.10
2018-12-01T15:29:23.040Z,13.10
2018-12-01T15:31:27.050Z,13.10
2018-12-01T15:33:31.066Z,13.10
2018-12-01T15:35:35.205Z,13.10
2018-12-01T15:37:39.209Z,13.10
2018-12-01T15:39:43.344Z,13.10
2018-12-01T15:41:47.343Z,13.10
2018-12-01T15:43:51.365Z,13.10
2018-12-01T15:45:55.405Z,13.10
2018-12-01T15:47:59.413Z,13.10
2018-12-01T15:50:03.491Z,13.00
2018-12-01T15:52:07.503Z,13.00
2018-12-01T15:54:11.550Z,13.00
2018-12-01T15:56:15.542Z,13.00
2018-12-01T15:58:19.654Z,13.00
2018-12-01T16:00:25.472Z,13.00
2018-12-01T16:02:29.484Z,13.00
2018-12-01T16:04:33.507Z,13.00
2018-12-01T16:06:37.571Z,12.90
2018-12-01T16:08:41.622Z,13.00
2018-12-01T16:10:45.818Z,12.90
2018-12-01T16:12:54.757Z,12.90
2018-12-01T16:14:58.958Z,12.90
2018-12-01T16:17:02.994Z,12.90
2018-12-01T16:19:07.209Z,12.90
2018-12-01T16:21:11.245Z,12.80
2018-12-01T16:23:15.308Z,12.80
2018-12-01T16:25:21.598Z,12.80
2018-12-01T16:27:25.617Z,12.80
2018-12-01T16:29:29.699Z,12.80
2018-12-01T16:31:33.881Z,12.80
2018-12-01T16:33:37.900Z,12.80
2018-12-01T16:35:41.910Z,12.70
2018-12-01T16:37:45.947Z,12.80
2018-12-01T16:39:50.117Z,12.70
2018-12-01T16:41:54.281Z,12.70
2018-12-01T16:43:58.313Z,12.70
2018-12-01T16:46:02.460Z,12.70
2018-12-01T16:48:06.783Z,12.70
2018-12-01T16:50:14.562Z,12.70
2018-12-01T16:52:18.773Z,12.70
2018-12-01T16:54:23.370Z,12.70
2018-12-01T16:56:27.402Z,12.60
2018-12-01T16:58:31.442Z,12.60
2018-12-01T17:00:35.519Z,12.60
2018-12-01T17:02:39.552Z,12.60
2018-12-01T17:04:43.570Z,12.60
2018-12-01T17:06:47.744Z,12.60
2018-12-01T17:08:53.683Z,12.50
2018-12-01T17:10:57.957Z,12.60
2018-12-01T17:13:02.073Z,12.50
2018-12-01T17:15:10.571Z,12.50
2018-12-01T17:17:14.689Z,12.50
2018-12-01T17:19:18.863Z,12.50
2018-12-01T17:21:24.028Z,12.40
2018-12-01T17:23:28.197Z,12.40
2018-12-01T17:25:32.551Z,12.40
2018-12-01T17:27:36.830Z,12.40
2018-12-01T17:29:40.846Z,12.40
2018-12-01T17:31:44.964Z,12.30
2018-12-01T17:33:49.058Z,12.30
2018-12-01T17:35:53.195Z,12.30
2018-12-01T17:37:59.217Z,12.30
2018-12-01T17:40:03.661Z,12.30
2018-12-01T17:42:08.739Z,12.30
2018-12-01T17:44:12.850Z,12.20
2018-12-01T17:46:17.097Z,12.20
2018-12-01T17:48:21.131Z,12.20
2018-12-01T17:50:25.420Z,12.20
2018-12-01T17:52:29.583Z,12.20
2018-12-01T17:54:33.618Z,12.20
2018-12-01T17:56:37.977Z,12.20
2018-12-01T17:58:42.004Z,12.10
2018-12-01T18:00:46.114Z,12.10
2018-12-01T18:02:51.928Z,12.10
2018-12-01T18:04:55.974Z,12.10
2018-12-01T18:07:00.048Z,12.10
2018-12-01T18:09:05.242Z,12.10
2018-12-01T18:11:10.624Z,12.10
2018-12-01T18:13:14.667Z,12.10
2018-12-01T18:15:19.399Z,12.10
2018-12-01T18:17:24.389Z,12.10
2018-12-01T18:19:28.470Z,12.10
2018-12-01T18:21:32.521Z,12.00
2018-12-01T18:23:36.606Z,12.00
2018-12-01T18:25:46.073Z,12.00
2018-12-01T18:27:52.317Z,12.00
2018-12-01T18:29:56.377Z,12.00
2018-12-01T18:32:00.957Z,12.00
2018-12-01T18:34:12.957Z,12.00
2018-12-01T18:36:17.041Z,12.00
2018-12-01T18:38:21.066Z,12.00
2018-12-01T18:40:25.078Z,11.90
2018-12-01T18:42:29.166Z,11.90
2018-12-01T18:44:33.146Z,11.90
2018-12-01T18:46:37.322Z,11.90
2018-12-01T18:48:41.343Z,11.90
2018-12-01T18:50:45.421Z,11.90
2018-12-01T18:53:00.362Z,11.90
2018-12-01T18:55:04.721Z,11.90
2018-12-01T18:57:08.961Z,11.90
2018-12-01T18:59:12.978Z,11.80
2018-12-01T19:01:17.111Z,11.90
2018-12-01T19:03:23.373Z,11.80
2018-12-01T19:05:27.405Z,11.80
2018-12-01T19:07:31.421Z,11.80
2018-12-01T19:09:35.522Z,11.80
2018-12-01T19:11:39.591Z,11.80
2018-12-01T19:13:43.593Z,11.80
2018-12-01T19:15:47.640Z,11.80
2018-12-01T19:17:51.645Z,11.80
2018-12-01T19:19:55.703Z,11.80
2018-12-01T19:21:59.757Z,11.80
2018-12-01T19:24:03.785Z,11.70
2018-12-01T19:26:07.859Z,11.70
2018-12-01T19:28:11.988Z,11.70
2018-12-01T19:30:17.790Z,11.70
2018-12-01T19:32:21.924Z,11.70
2018-12-01T19:34:26.005Z,11.70
2018-12-01T19:36:30.061Z,11.70
2018-12-01T19:38:34.238Z,11.70
2018-12-01T19:40:38.314Z,11.70
2018-12-01T19:42:42.301Z,11.70
2018-12-01T19:44:46.350Z,11.70
2018-12-01T19:46:50.382Z,11.70
2018-12-01T19:48:54.505Z,11.70
2018-12-01T19:50:58.585Z,11.70
2018-12-01T19:53:02.674Z,11.70
2018-12-01T19:55:12.156Z,11.70
2018-12-01T19:57:16.320Z,11.70
2018-12-01T19:59:20.353Z,11.70
2018-12-01T20:01:24.614Z,11.70
2018-12-01T20:03:31.362Z,11.60
2018-12-01T20:05:35.395Z,11.60
2018-12-01T20:07:39.597Z,11.60
2018-12-01T20:09:43.744Z,11.60
2018-12-01T20:11:47.782Z,11.60
2018-12-01T20:13:52.596Z,11.60
2018-12-01T20:16:04.850Z,11.60
2018-12-01T20:18:16.822Z,11.60
2018-12-01T20:20:21.336Z,11.60
2018-12-01T20:22:25.459Z,11.60
2018-12-01T20:24:29.729Z,11.60
2018-12-01T20:26:35.158Z,11.60
2018-12-01T20:28:39.294Z,11.60
2018-12-01T20:30:50.955Z,11.60
2018-12-01T20:32:55.113Z,11.60
2018-12-01T20:34:59.106Z,11.60
2018-12-01T20:37:08.110Z,11.60
2018-12-01T20:39:18.833Z,11.60
2018-12-01T20:41:22.931Z,11.60
2018-12-01T20:43:27.122Z,11.60
2018-12-01T20:45:31.306Z,11.60
2018-12-01T20:47:35.358Z,11.60
2018-12-01T20:49:39.547Z,11.60
2018-12-01T20:51:43.686Z,11.60
2018-12-01T20:53:47.758Z,11.60
2018-12-01T20:55:56.045Z,11.60
2018-12-01T20:58:02.946Z,11.50
2018-12-01T21:00:10.803Z,11.60
2018-12-01T21:02:14.901Z,11.60
2018-12-01T21:04:19.045Z,11.50
2018-12-01T21:06:23.161Z,11.50
2018-12-01T21:08:27.952Z,11.60
2018-12-01T21:10:34.887Z,11.50
2018-12-01T21:12:38.958Z,11.50
2018-12-01T21:14:43.053Z,11.50
2018-12-01T21:16:47.118Z,11.50
2018-12-01T21:18:51.145Z,11.50
2018-12-01T21:20:55.308Z,11.50
2018-12-01T21:22:59.407Z,11.50
2018-12-01T21:25:03.534Z,11.50
2018-12-01T21:27:07.616Z,11.50
2018-12-01T21:29:11.618Z,11.50
2018-12-01T21:31:15.751Z,11.50
2018-12-01T21:33:22.822Z,11.50
2018-12-01T21:35:26.877Z,11.50
2018-12-01T21:37:30.951Z,11.50
2018-12-01T21:39:34.978Z,11.60
2018-12-01T21:41:39.022Z,11.60
2018-12-01T21:43:43.056Z,11.60
2018-12-01T21:45:47.033Z,11.60
2018-12-01T21:47:51.056Z,11.60
2018-12-01T21:49:55.129Z,11.60
2018-12-01T21:51:59.216Z,11.60
2018-12-01T21:54:03.386Z,11.60
2018-12-01T21:56:07.365Z,11.60
2018-12-01T21:58:11.361Z,11.50
2018-12-01T22:00:18.495Z,11.60
2018-12-01T22:02:22.665Z,11.60
2018-12-01T22:04:26.789Z,11.60
2018-12-01T22:06:30.770Z,11.50
2018-12-01T22:08:36.083Z,11.60
2018-12-01T22:10:40.414Z,11.60
2018-12-01T22:12:44.560Z,11.50
2018-12-01T22:14:48.698Z,11.60
2018-12-01T22:16:52.703Z,11.60
2018-12-01T22:18:56.808Z,11.60
2018-12-01T22:21:00.962Z,11.60
2018-12-01T22:23:06.172Z,11.60
2018-12-01T22:25:11.111Z,11.60
2018-12-01T22:27:15.112Z,11.60
2018-12-01T22:29:19.164Z,11.60
2018-12-01T22:31:23.172Z,11.60
2018-12-01T22:33:28.329Z,11.60
2018-12-01T22:35:32.432Z,11.60
2018-12-01T22:37:36.494Z,11.60
2018-12-01T22:39:41.187Z,11.60
2018-12-01T22:41:45.197Z,11.60
2018-12-01T22:43:49.312Z,11.60
2018-12-01T22:45:53.505Z,11.60
2018-12-01T22:48:00.645Z,11.60
2018-12-01T22:50:09.765Z,11.60
2018-12-01T22:52:13.809Z,11.60
2018-12-01T22:54:17.833Z,11.60
2018-12-01T22:56:21.879Z,11.60
2018-12-01T22:58:26.084Z,11.60
2018-12-01T23:00:39.662Z,11.60
2018-12-01T23:02:43.720Z,11.60
2018-12-01T23:04:47.950Z,11.60
2018-12-01T23:06:52.040Z,11.70
2018-12-01T23:08:56.218Z,11.60
2018-12-01T23:11:00.268Z,11.70
2018-12-01T23:13:04.289Z,11.70
2018-12-01T23:15:12.770Z,11.70
2018-12-01T23:17:16.844Z,11.70
2018-12-01T23:19:20.848Z,11.70
2018-12-01T23:21:25.358Z,11.70
2018-12-01T23:23:29.354Z,11.70
2018-12-01T23:25:33.354Z,11.70
2018-12-01T23:27:37.558Z,11.70
2018-12-01T23:29:41.591Z,11.70
2018-12-01T23:31:45.602Z,11.70
2018-12-01T23:33:49.738Z,11.70
2018-12-01T23:35:53.812Z,11.70
2018-12-01T23:37:58.229Z,11.70
2018-12-01T23:40:02.277Z,11.80
2018-12-01T23:42:06.419Z,11.80
2018-12-01T23:44:14.646Z,11.80
2018-12-01T23:46:18.696Z,11.80
2018-12-01T23:48:22.890Z,11.80
2018-12-01T23:50:27.526Z,11.80
2018-12-01T23:52:31.581Z,11.80
2018-12-01T23:54:35.580Z,11.90
2018-12-01T23:56:39.605Z,11.80
2018-12-01T23:58:43.679Z,11.80
